GAP2680 RPVM-RPVV
Flight info
| Callsign | GAP2680 |
|---|---|
| Flight time | 0h 53m |
| Altitude | 24000 |
| Route | PARAO1Q PARAO W6A ROX DCT CT |
| Aircraft | DH8D/M-SDE2E3FGRY/H |
Departure
| Time | 2026-04-28 06:56 |
|---|---|
| Airport | Mactan Cebu International Airport (RPVM) |
Arrival
| Time | 2026-04-28 07:50 |
|---|---|
| Airport | Francisco B. Reyes (Busuanga) Airport (RPVV) |
| Time | Latitude | Longitude | Altitude | Speed | Heading |
|---|---|---|---|---|---|
| 2026-04-28 06:44 | 10.31695 | 123.98099 | 38 ft | 0 kts | 314° |
| 2026-04-28 06:46 | 10.31691 | 123.98104 | 39 ft | 2 kts | 314° |
| 2026-04-28 06:46 | 10.31681 | 123.98114 | 39 ft | 0 kts | 314° |
| 2026-04-28 06:46 | 10.31675 | 123.98122 | 39 ft | 2 kts | 297° |
| 2026-04-28 06:46 | 10.31671 | 123.98137 | 38 ft | 2 kts | 270° |
| 2026-04-28 06:47 | 10.31673 | 123.98151 | 38 ft | 2 kts | 245° |
| 2026-04-28 06:47 | 10.31680 | 123.98161 | 38 ft | 0 kts | 224° |
| 2026-04-28 06:47 | 10.31665 | 123.98148 | 38 ft | 4 kts | 220° |
| 2026-04-28 06:47 | 10.31654 | 123.98138 | 38 ft | 0 kts | 221° |
| 2026-04-28 06:49 | 10.31654 | 123.98137 | 38 ft | 0 kts | 221° |
| 2026-04-28 06:50 | 10.31646 | 123.98131 | 38 ft | 3 kts | 221° |
| 2026-04-28 06:50 | 10.31619 | 123.98117 | 38 ft | 5 kts | 187° |
| 2026-04-28 06:50 | 10.31579 | 123.98133 | 38 ft | 6 kts | 140° |
| 2026-04-28 06:50 | 10.31543 | 123.98170 | 38 ft | 7 kts | 134° |
| 2026-04-28 06:51 | 10.31503 | 123.98211 | 38 ft | 8 kts | 134° |
| 2026-04-28 06:51 | 10.31456 | 123.98230 | 38 ft | 7 kts | 200° |
| 2026-04-28 06:51 | 10.31415 | 123.98195 | 38 ft | 9 kts | 225° |
| 2026-04-28 06:51 | 10.31363 | 123.98141 | 38 ft | 12 kts | 225° |
| 2026-04-28 06:52 | 10.31297 | 123.98076 | 38 ft | 14 kts | 225° |
| 2026-04-28 06:52 | 10.31218 | 123.97997 | 38 ft | 16 kts | 224° |
| 2026-04-28 06:52 | 10.31132 | 123.97910 | 38 ft | 18 kts | 225° |
| 2026-04-28 06:52 | 10.31038 | 123.97815 | 38 ft | 19 kts | 225° |
| 2026-04-28 06:53 | 10.30938 | 123.97715 | 38 ft | 20 kts | 225° |
| 2026-04-28 06:53 | 10.30834 | 123.97611 | 38 ft | 21 kts | 226° |
| 2026-04-28 06:53 | 10.30728 | 123.97503 | 38 ft | 21 kts | 224° |
| 2026-04-28 06:53 | 10.30618 | 123.97393 | 38 ft | 22 kts | 225° |
| 2026-04-28 06:54 | 10.30510 | 123.97285 | 38 ft | 20 kts | 224° |
| 2026-04-28 06:54 | 10.30420 | 123.97195 | 38 ft | 14 kts | 225° |
| 2026-04-28 06:54 | 10.30364 | 123.97156 | 38 ft | 7 kts | 177° |
| 2026-04-28 06:54 | 10.30323 | 123.97185 | 38 ft | 6 kts | 136° |
| 2026-04-28 06:55 | 10.30298 | 123.97211 | 38 ft | 2 kts | 103° |
| 2026-04-28 06:55 | 10.30306 | 123.97222 | 38 ft | 3 kts | 44° |
| 2026-04-28 06:55 | 10.30451 | 123.97368 | 38 ft | 69 kts | 44° |
| 2026-04-28 06:55 | 10.30987 | 123.97904 | 38 ft | 139 kts | 44° |
| 2026-04-28 06:56 | 10.31720 | 123.98662 | 252 ft | 158 kts | 46° |
| 2026-04-28 06:56 | 10.32511 | 123.99485 | 760 ft | 167 kts | 48° |
| 2026-04-28 06:56 | 10.33342 | 124.00330 | 1352 ft | 172 kts | 48° |
| 2026-04-28 06:56 | 10.34186 | 124.01183 | 1934 ft | 176 kts | 48° |
| 2026-04-28 06:57 | 10.35075 | 124.02078 | 2377 ft | 182 kts | 48° |
| 2026-04-28 06:57 | 10.36135 | 124.02787 | 2793 ft | 193 kts | 16° |
| 2026-04-28 06:57 | 10.37469 | 124.02521 | 3155 ft | 208 kts | 328° |
| 2026-04-28 06:57 | 10.38540 | 124.01508 | 3625 ft | 211 kts | 316° |
| 2026-04-28 06:58 | 10.39533 | 124.00423 | 4128 ft | 211 kts | 315° |
| 2026-04-28 06:58 | 10.40528 | 123.99318 | 4574 ft | 213 kts | 315° |
| 2026-04-28 06:58 | 10.41529 | 123.98198 | 5040 ft | 215 kts | 315° |
| 2026-04-28 06:58 | 10.42525 | 123.97077 | 5539 ft | 215 kts | 314° |
| 2026-04-28 06:59 | 10.43529 | 123.95946 | 6022 ft | 216 kts | 314° |
| 2026-04-28 06:59 | 10.44545 | 123.94797 | 6458 ft | 219 kts | 313° |
| 2026-04-28 06:59 | 10.45557 | 123.93652 | 6907 ft | 220 kts | 314° |
| 2026-04-28 06:59 | 10.46583 | 123.92490 | 7342 ft | 221 kts | 314° |
| 2026-04-28 07:00 | 10.47613 | 123.91322 | 7823 ft | 222 kts | 314° |
| 2026-04-28 07:00 | 10.48657 | 123.90138 | 8280 ft | 226 kts | 313° |
| 2026-04-28 07:00 | 10.49696 | 123.88958 | 8820 ft | 227 kts | 313° |
| 2026-04-28 07:00 | 10.50762 | 123.87749 | 9176 ft | 238 kts | 313° |
| 2026-04-28 07:01 | 10.51897 | 123.86457 | 9511 ft | 251 kts | 313° |
| 2026-04-28 07:01 | 10.53075 | 123.85114 | 10003 ft | 257 kts | 313° |
| 2026-04-28 07:01 | 10.54276 | 123.83746 | 10630 ft | 258 kts | 313° |
| 2026-04-28 07:01 | 10.55463 | 123.82394 | 11279 ft | 260 kts | 313° |
| 2026-04-28 07:02 | 10.56676 | 123.81012 | 11936 ft | 261 kts | 313° |
| 2026-04-28 07:02 | 10.57890 | 123.79630 | 12590 ft | 264 kts | 313° |
| 2026-04-28 07:02 | 10.59115 | 123.78236 | 13252 ft | 266 kts | 313° |
| 2026-04-28 07:02 | 10.60338 | 123.76843 | 13914 ft | 269 kts | 313° |
| 2026-04-28 07:03 | 10.61574 | 123.75436 | 14595 ft | 270 kts | 314° |
| 2026-04-28 07:03 | 10.62832 | 123.74004 | 15274 ft | 272 kts | 314° |
| 2026-04-28 07:03 | 10.64102 | 123.72559 | 15940 ft | 274 kts | 314° |
| 2026-04-28 07:03 | 10.65366 | 123.71119 | 16582 ft | 278 kts | 314° |
| 2026-04-28 07:04 | 10.66655 | 123.69652 | 17263 ft | 281 kts | 314° |
| 2026-04-28 07:04 | 10.67958 | 123.68169 | 17940 ft | 283 kts | 314° |
| 2026-04-28 07:04 | 10.69276 | 123.66667 | 18583 ft | 288 kts | 314° |
| 2026-04-28 07:04 | 10.70613 | 123.65144 | 19258 ft | 291 kts | 314° |
| 2026-04-28 07:05 | 10.71969 | 123.63599 | 19931 ft | 295 kts | 314° |
| 2026-04-28 07:05 | 10.73319 | 123.62060 | 20587 ft | 299 kts | 314° |
| 2026-04-28 07:05 | 10.74713 | 123.60472 | 21276 ft | 302 kts | 314° |
| 2026-04-28 07:05 | 10.76124 | 123.58865 | 21961 ft | 306 kts | 314° |
| 2026-04-28 07:06 | 10.77533 | 123.57259 | 22649 ft | 309 kts | 314° |
| 2026-04-28 07:06 | 10.78969 | 123.55622 | 23341 ft | 312 kts | 313° |
| 2026-04-28 07:06 | 10.80450 | 123.53934 | 23718 ft | 329 kts | 313° |
| 2026-04-28 07:06 | 10.82040 | 123.52120 | 23824 ft | 352 kts | 313° |
| 2026-04-28 07:07 | 10.83690 | 123.50231 | 23850 ft | 369 kts | 313° |
| 2026-04-28 07:07 | 10.85404 | 123.48270 | 23836 ft | 370 kts | 313° |
| 2026-04-28 07:07 | 10.87111 | 123.46313 | 23844 ft | 370 kts | 313° |
| 2026-04-28 07:07 | 10.88829 | 123.44345 | 23848 ft | 370 kts | 313° |
| 2026-04-28 07:08 | 10.90544 | 123.42382 | 23849 ft | 370 kts | 313° |
| 2026-04-28 07:08 | 10.92258 | 123.40423 | 23845 ft | 370 kts | 313° |
| 2026-04-28 07:08 | 10.94061 | 123.38561 | 23850 ft | 369 kts | 318° |
| 2026-04-28 07:08 | 10.95930 | 123.36794 | 23849 ft | 369 kts | 318° |
| 2026-04-28 07:09 | 10.97829 | 123.34997 | 23847 ft | 369 kts | 318° |
| 2026-04-28 07:09 | 10.99702 | 123.33221 | 23847 ft | 369 kts | 318° |
| 2026-04-28 07:09 | 11.01576 | 123.31435 | 23846 ft | 369 kts | 318° |
| 2026-04-28 07:09 | 11.03466 | 123.29630 | 23845 ft | 369 kts | 318° |
| 2026-04-28 07:10 | 11.05324 | 123.27853 | 23846 ft | 370 kts | 317° |
| 2026-04-28 07:10 | 11.07206 | 123.26051 | 23846 ft | 372 kts | 318° |
| 2026-04-28 07:10 | 11.09095 | 123.24239 | 23846 ft | 373 kts | 317° |
| 2026-04-28 07:10 | 11.11005 | 123.22405 | 23848 ft | 375 kts | 317° |
| 2026-04-28 07:11 | 11.12902 | 123.20582 | 23846 ft | 376 kts | 317° |
| 2026-04-28 07:11 | 11.14795 | 123.18761 | 23848 ft | 376 kts | 317° |
| 2026-04-28 07:11 | 11.16689 | 123.16939 | 23848 ft | 377 kts | 317° |
| 2026-04-28 07:11 | 11.18616 | 123.15084 | 23846 ft | 376 kts | 317° |
| 2026-04-28 07:12 | 11.20490 | 123.13279 | 23844 ft | 372 kts | 317° |
| 2026-04-28 07:12 | 11.22372 | 123.11465 | 23845 ft | 370 kts | 317° |
| 2026-04-28 07:12 | 11.24249 | 123.09657 | 23843 ft | 368 kts | 317° |
| 2026-04-28 07:12 | 11.26091 | 123.07881 | 23842 ft | 367 kts | 317° |
| 2026-04-28 07:13 | 11.27956 | 123.06084 | 23838 ft | 366 kts | 317° |
| 2026-04-28 07:13 | 11.29803 | 123.04305 | 23839 ft | 365 kts | 317° |
| 2026-04-28 07:13 | 11.31645 | 123.02528 | 23838 ft | 365 kts | 317° |
| 2026-04-28 07:13 | 11.33502 | 123.00738 | 23842 ft | 365 kts | 317° |
| 2026-04-28 07:14 | 11.35342 | 122.98963 | 23844 ft | 364 kts | 317° |
| 2026-04-28 07:14 | 11.37184 | 122.97186 | 23843 ft | 364 kts | 317° |
| 2026-04-28 07:14 | 11.39031 | 122.95405 | 23838 ft | 364 kts | 317° |
| 2026-04-28 07:14 | 11.40846 | 122.93653 | 23836 ft | 364 kts | 317° |
| 2026-04-28 07:15 | 11.42693 | 122.91871 | 23834 ft | 364 kts | 317° |
| 2026-04-28 07:15 | 11.44543 | 122.90085 | 23834 ft | 364 kts | 317° |
| 2026-04-28 07:15 | 11.46376 | 122.88315 | 23836 ft | 364 kts | 317° |
| 2026-04-28 07:15 | 11.48216 | 122.86537 | 23836 ft | 363 kts | 317° |
| 2026-04-28 07:16 | 11.50049 | 122.84766 | 23836 ft | 363 kts | 317° |
| 2026-04-28 07:16 | 11.51885 | 122.82993 | 23836 ft | 363 kts | 317° |
| 2026-04-28 07:16 | 11.53735 | 122.81205 | 23838 ft | 364 kts | 317° |
| 2026-04-28 07:16 | 11.55577 | 122.79425 | 23839 ft | 368 kts | 317° |
| 2026-04-28 07:17 | 11.57445 | 122.77620 | 23840 ft | 371 kts | 317° |
| 2026-04-28 07:17 | 11.59269 | 122.75751 | 23826 ft | 375 kts | 310° |
| 2026-04-28 07:17 | 11.60554 | 122.73418 | 23877 ft | 376 kts | 294° |
| 2026-04-28 07:17 | 11.61570 | 122.70968 | 23853 ft | 379 kts | 293° |
| 2026-04-28 07:18 | 11.62595 | 122.68466 | 23835 ft | 381 kts | 293° |
| 2026-04-28 07:18 | 11.63602 | 122.66003 | 23832 ft | 377 kts | 293° |
| 2026-04-28 07:18 | 11.64613 | 122.63535 | 23843 ft | 373 kts | 293° |
| 2026-04-28 07:18 | 11.65608 | 122.61109 | 23847 ft | 370 kts | 293° |
| 2026-04-28 07:19 | 11.66603 | 122.58688 | 23846 ft | 368 kts | 293° |
| 2026-04-28 07:19 | 11.67588 | 122.56294 | 23850 ft | 366 kts | 293° |
| 2026-04-28 07:19 | 11.68573 | 122.53902 | 23854 ft | 365 kts | 293° |
| 2026-04-28 07:19 | 11.69544 | 122.51543 | 23853 ft | 364 kts | 293° |
| 2026-04-28 07:20 | 11.70528 | 122.49153 | 23857 ft | 363 kts | 293° |
| 2026-04-28 07:20 | 11.71507 | 122.46780 | 23858 ft | 362 kts | 293° |
| 2026-04-28 07:20 | 11.72473 | 122.44437 | 23859 ft | 361 kts | 293° |
| 2026-04-28 07:20 | 11.73450 | 122.42066 | 23862 ft | 361 kts | 293° |
| 2026-04-28 07:21 | 11.74415 | 122.39723 | 23861 ft | 361 kts | 293° |
| 2026-04-28 07:21 | 11.75387 | 122.37362 | 23859 ft | 360 kts | 293° |
| 2026-04-28 07:21 | 11.76359 | 122.35000 | 23861 ft | 360 kts | 293° |
| 2026-04-28 07:22 | 11.78293 | 122.30300 | 23860 ft | 359 kts | 293° |
| 2026-04-28 07:22 | 11.79258 | 122.27956 | 23869 ft | 363 kts | 293° |
| 2026-04-28 07:22 | 11.80252 | 122.25539 | 23870 ft | 367 kts | 293° |
| 2026-04-28 07:22 | 11.81230 | 122.23163 | 23865 ft | 367 kts | 293° |
| 2026-04-28 07:23 | 11.82220 | 122.20753 | 23858 ft | 366 kts | 293° |
| 2026-04-28 07:23 | 11.83203 | 122.18361 | 23856 ft | 365 kts | 293° |
| 2026-04-28 07:23 | 11.84185 | 122.15970 | 23854 ft | 365 kts | 293° |
| 2026-04-28 07:23 | 11.85168 | 122.13577 | 23852 ft | 365 kts | 293° |
| 2026-04-28 07:24 | 11.86147 | 122.11195 | 23851 ft | 366 kts | 293° |
| 2026-04-28 07:24 | 11.87131 | 122.08800 | 23850 ft | 368 kts | 293° |
| 2026-04-28 07:24 | 11.88118 | 122.06396 | 23852 ft | 370 kts | 293° |
| 2026-04-28 07:24 | 11.89122 | 122.03944 | 23855 ft | 371 kts | 293° |
| 2026-04-28 07:25 | 11.90109 | 122.01541 | 23858 ft | 372 kts | 293° |
| 2026-04-28 07:25 | 11.91109 | 121.99103 | 23863 ft | 373 kts | 293° |
| 2026-04-28 07:25 | 11.92114 | 121.96630 | 23861 ft | 374 kts | 292° |
| 2026-04-28 07:25 | 11.92781 | 121.94072 | 23875 ft | 374 kts | 280° |
| 2026-04-28 07:26 | 11.93182 | 121.91475 | 23859 ft | 374 kts | 279° |
| 2026-04-28 07:26 | 11.93575 | 121.88840 | 23856 ft | 375 kts | 279° |
| 2026-04-28 07:26 | 11.93969 | 121.86200 | 23859 ft | 375 kts | 279° |
| 2026-04-28 07:26 | 11.94361 | 121.83597 | 23856 ft | 375 kts | 279° |
| 2026-04-28 07:27 | 11.94760 | 121.80952 | 23855 ft | 376 kts | 279° |
| 2026-04-28 07:27 | 11.95161 | 121.78311 | 23857 ft | 376 kts | 279° |
| 2026-04-28 07:27 | 11.95558 | 121.75703 | 23854 ft | 376 kts | 279° |
| 2026-04-28 07:27 | 11.95959 | 121.73068 | 23850 ft | 374 kts | 279° |
| 2026-04-28 07:28 | 11.96357 | 121.70455 | 23848 ft | 373 kts | 279° |
| 2026-04-28 07:28 | 11.96759 | 121.67821 | 23848 ft | 372 kts | 279° |
| 2026-04-28 07:28 | 11.97155 | 121.65227 | 23842 ft | 371 kts | 279° |
| 2026-04-28 07:28 | 11.97551 | 121.62634 | 23839 ft | 371 kts | 279° |
| 2026-04-28 07:29 | 11.97947 | 121.60040 | 23838 ft | 371 kts | 279° |
| 2026-04-28 07:29 | 11.98343 | 121.57445 | 23835 ft | 371 kts | 279° |
| 2026-04-28 07:29 | 11.98739 | 121.54846 | 23835 ft | 371 kts | 279° |
| 2026-04-28 07:29 | 11.99139 | 121.52222 | 23838 ft | 371 kts | 279° |
| 2026-04-28 07:30 | 11.99533 | 121.49642 | 23840 ft | 371 kts | 279° |
| 2026-04-28 07:30 | 11.99928 | 121.47044 | 23843 ft | 371 kts | 279° |
| 2026-04-28 07:30 | 12.00324 | 121.44439 | 23843 ft | 370 kts | 279° |
| 2026-04-28 07:30 | 12.00720 | 121.41836 | 23843 ft | 370 kts | 279° |
| 2026-04-28 07:31 | 12.01114 | 121.39246 | 23841 ft | 370 kts | 279° |
| 2026-04-28 07:31 | 12.01508 | 121.36653 | 23845 ft | 370 kts | 279° |
| 2026-04-28 07:31 | 12.01899 | 121.34079 | 23841 ft | 364 kts | 279° |
| 2026-04-28 07:31 | 12.02283 | 121.31544 | 23842 ft | 360 kts | 279° |
| 2026-04-28 07:32 | 12.02664 | 121.29032 | 23851 ft | 358 kts | 279° |
| 2026-04-28 07:32 | 12.03044 | 121.26527 | 23657 ft | 365 kts | 279° |
| 2026-04-28 07:32 | 12.03433 | 121.23955 | 23262 ft | 371 kts | 279° |
| 2026-04-28 07:32 | 12.03829 | 121.21331 | 22797 ft | 374 kts | 279° |
| 2026-04-28 07:33 | 12.04226 | 121.18697 | 22313 ft | 374 kts | 279° |
| 2026-04-28 07:33 | 12.04617 | 121.16098 | 21839 ft | 372 kts | 279° |
| 2026-04-28 07:33 | 12.05011 | 121.13480 | 21373 ft | 369 kts | 279° |
| 2026-04-28 07:33 | 12.05399 | 121.10901 | 20911 ft | 368 kts | 279° |
| 2026-04-28 07:34 | 12.05784 | 121.08347 | 20444 ft | 367 kts | 279° |
| 2026-04-28 07:34 | 12.06174 | 121.05755 | 19960 ft | 367 kts | 279° |
| 2026-04-28 07:34 | 12.06559 | 121.03198 | 19489 ft | 366 kts | 279° |
| 2026-04-28 07:34 | 12.06943 | 121.00645 | 19020 ft | 365 kts | 279° |
| 2026-04-28 07:35 | 12.07327 | 120.98088 | 18560 ft | 363 kts | 279° |
| 2026-04-28 07:35 | 12.07706 | 120.95573 | 18092 ft | 362 kts | 279° |
| 2026-04-28 07:35 | 12.08087 | 120.93031 | 17622 ft | 361 kts | 279° |
| 2026-04-28 07:35 | 12.08465 | 120.90498 | 17177 ft | 360 kts | 279° |
| 2026-04-28 07:36 | 12.08841 | 120.87997 | 16713 ft | 360 kts | 279° |
| 2026-04-28 07:36 | 12.09220 | 120.85461 | 16245 ft | 360 kts | 279° |
| 2026-04-28 07:36 | 12.09600 | 120.82928 | 15775 ft | 360 kts | 279° |
| 2026-04-28 07:36 | 12.09973 | 120.80434 | 15318 ft | 359 kts | 279° |
| 2026-04-28 07:37 | 12.10352 | 120.77905 | 14870 ft | 358 kts | 279° |
| 2026-04-28 07:37 | 12.10724 | 120.75417 | 14405 ft | 358 kts | 279° |
| 2026-04-28 07:37 | 12.11101 | 120.72900 | 13948 ft | 357 kts | 279° |
| 2026-04-28 07:37 | 12.11476 | 120.70386 | 13492 ft | 356 kts | 279° |
| 2026-04-28 07:38 | 12.11843 | 120.67918 | 13033 ft | 354 kts | 279° |
| 2026-04-28 07:38 | 12.12212 | 120.65448 | 12603 ft | 350 kts | 279° |
| 2026-04-28 07:38 | 12.12576 | 120.63005 | 12224 ft | 346 kts | 279° |
| 2026-04-28 07:38 | 12.12938 | 120.60578 | 11807 ft | 345 kts | 279° |
| 2026-04-28 07:39 | 12.13295 | 120.58176 | 11361 ft | 337 kts | 278° |
| 2026-04-28 07:39 | 12.13635 | 120.55863 | 10949 ft | 324 kts | 278° |
| 2026-04-28 07:39 | 12.13966 | 120.53632 | 10533 ft | 312 kts | 278° |
| 2026-04-28 07:39 | 12.14287 | 120.51472 | 10139 ft | 301 kts | 278° |
| 2026-04-28 07:40 | 12.14595 | 120.49408 | 9757 ft | 291 kts | 278° |
| 2026-04-28 07:40 | 12.14896 | 120.47397 | 9392 ft | 288 kts | 278° |
| 2026-04-28 07:40 | 12.15200 | 120.45374 | 9031 ft | 286 kts | 278° |
| 2026-04-28 07:40 | 12.15498 | 120.43372 | 8670 ft | 283 kts | 278° |
| 2026-04-28 07:41 | 12.15791 | 120.41406 | 8304 ft | 280 kts | 278° |
| 2026-04-28 07:41 | 12.16084 | 120.39439 | 7939 ft | 278 kts | 278° |
| 2026-04-28 07:41 | 12.16370 | 120.37516 | 7593 ft | 276 kts | 278° |
| 2026-04-28 07:41 | 12.16657 | 120.35582 | 7237 ft | 274 kts | 278° |
| 2026-04-28 07:42 | 12.16940 | 120.33674 | 6886 ft | 272 kts | 278° |
| 2026-04-28 07:42 | 12.17221 | 120.31774 | 6537 ft | 270 kts | 278° |
| 2026-04-28 07:42 | 12.17504 | 120.29864 | 6186 ft | 268 kts | 278° |
| 2026-04-28 07:42 | 12.17779 | 120.28004 | 5843 ft | 266 kts | 278° |
| 2026-04-28 07:43 | 12.18055 | 120.26138 | 5498 ft | 263 kts | 278° |
| 2026-04-28 07:43 | 12.18322 | 120.24316 | 5161 ft | 254 kts | 278° |
| 2026-04-28 07:43 | 12.18578 | 120.22580 | 4842 ft | 245 kts | 278° |
| 2026-04-28 07:43 | 12.18829 | 120.20885 | 4534 ft | 235 kts | 278° |
| 2026-04-28 07:44 | 12.19066 | 120.19282 | 4239 ft | 225 kts | 278° |
| 2026-04-28 07:44 | 12.19299 | 120.17716 | 3963 ft | 222 kts | 278° |
| 2026-04-28 07:44 | 12.19533 | 120.16165 | 3692 ft | 222 kts | 278° |
| 2026-04-28 07:44 | 12.19763 | 120.14611 | 3406 ft | 220 kts | 277° |
| 2026-04-28 07:45 | 12.19988 | 120.13081 | 3119 ft | 212 kts | 277° |
| 2026-04-28 07:45 | 12.20199 | 120.11638 | 2858 ft | 203 kts | 277° |
| 2026-04-28 07:45 | 12.20211 | 120.10214 | 2540 ft | 193 kts | 246° |
| 2026-04-28 07:45 | 12.19481 | 120.09180 | 2355 ft | 171 kts | 220° |
| 2026-04-28 07:46 | 12.18694 | 120.08373 | 2155 ft | 150 kts | 220° |
| 2026-04-28 07:46 | 12.17973 | 120.07623 | 1968 ft | 146 kts | 220° |
| 2026-04-28 07:46 | 12.17261 | 120.06889 | 1779 ft | 146 kts | 219° |
| 2026-04-28 07:46 | 12.16535 | 120.06139 | 1586 ft | 150 kts | 221° |
| 2026-04-28 07:47 | 12.15934 | 120.05253 | 1443 ft | 151 kts | 233° |
| 2026-04-28 07:47 | 12.15386 | 120.04347 | 1364 ft | 151 kts | 233° |
| 2026-04-28 07:47 | 12.14686 | 120.03567 | 1277 ft | 146 kts | 202° |
| 2026-04-28 07:47 | 12.13757 | 120.03440 | 1132 ft | 132 kts | 157° |
| 2026-04-28 07:48 | 12.13082 | 120.03990 | 1055 ft | 126 kts | 120° |
| 2026-04-28 07:48 | 12.12760 | 120.04826 | 981 ft | 128 kts | 107° |
| 2026-04-28 07:48 | 12.12516 | 120.05708 | 840 ft | 126 kts | 105° |
| 2026-04-28 07:48 | 12.12301 | 120.06566 | 728 ft | 123 kts | 104° |
| 2026-04-28 07:49 | 12.12112 | 120.07429 | 579 ft | 122 kts | 100° |
| 2026-04-28 07:49 | 12.12038 | 120.08292 | 386 ft | 122 kts | 90° |
| 2026-04-28 07:49 | 12.12106 | 120.09147 | 245 ft | 120 kts | 86° |
| 2026-04-28 07:49 | 12.12181 | 120.09970 | 172 ft | 101 kts | 84° |
| 2026-04-28 07:50 | 12.12218 | 120.10373 | 171 ft | 27 kts | 84° |
| 2026-04-28 07:50 | 12.12225 | 120.10506 | 171 ft | 8 kts | 97° |
| 2026-04-28 07:50 | 12.12229 | 120.10529 | 171 ft | 1 kts | 17° |
| 2026-04-28 07:50 | 12.12234 | 120.10505 | 171 ft | 7 kts | 259° |
| 2026-04-28 07:51 | 12.12225 | 120.10433 | 170 ft | 13 kts | 264° |
| 2026-04-28 07:51 | 12.12213 | 120.10322 | 171 ft | 17 kts | 265° |
| 2026-04-28 07:51 | 12.12201 | 120.10184 | 171 ft | 19 kts | 264° |
| 2026-04-28 07:51 | 12.12189 | 120.10058 | 171 ft | 13 kts | 263° |
| 2026-04-28 07:52 | 12.12140 | 120.09991 | 172 ft | 11 kts | 218° |
| 2026-04-28 07:52 | 12.12088 | 120.09941 | 172 ft | 7 kts | 248° |
| 2026-04-28 07:52 | 12.12083 | 120.09905 | 172 ft | 2 kts | 243° |
| 2026-04-28 07:52 | 12.12064 | 120.09900 | 172 ft | 3 kts | 174° |
| 2026-04-28 07:53 | 12.12043 | 120.09901 | 172 ft | 2 kts | 174° |
| 2026-04-28 07:53 | 12.12034 | 120.09902 | 172 ft | 0 kts | 174° |